Time;durP1;ratioP1;P1;durP2;ratioP2;P2;SDS_P1;SDS_P2;PMS_P1;PMS_P2;Temp;Humidity;BMP_temperature;BMP_pressure;BME280_temperature;BME280_humidity;BME280_pressure;Samples;Min_cycle;Max_cycle;Signal;HPM_P1;HPM_P2
2024/03/04 00:00:20;;;;;;;11.38;9.63;;;;;;;;;;5039354;28;20218;-93
2024/03/04 00:02:48;;;;;;;8.77;7.65;;;;;;;;;;5039006;28;20210;-93
2024/03/04 00:05:15;;;;;;;10.68;8.65;;;;;;;;;;5039035;28;20208;-94
2024/03/04 00:07:45;;;;;;;10.50;9.48;;;;;;;;;;5038733;28;20227;-93
2024/03/04 00:10:13;;;;;;;11.88;10.50;;;;;;;;;;5038464;28;20287;-94
2024/03/04 00:12:40;;;;;;;15.68;11.43;;;;;;;;;;5037989;28;20203;-93
2024/03/04 00:15:09;;;;;;;12.38;10.63;;;;;;;;;;5038405;28;20187;-94
2024/03/04 00:17:36;;;;;;;11.68;9.57;;;;;;;;;;5038533;28;20214;-92
2024/03/04 00:20:06;;;;;;;10.40;8.93;;;;;;;;;;5038254;28;20227;-93
2024/03/04 00:22:35;;;;;;;10.18;9.10;;;;;;;;;;5037988;28;20191;-92
2024/03/04 00:25:05;;;;;;;10.60;9.55;;;;;;;;;;5038340;28;20194;-93
2024/03/04 00:27:33;;;;;;;11.73;9.80;;;;;;;;;;5038202;28;20223;-94
2024/03/04 00:30:01;;;;;;;10.00;8.52;;;;;;;;;;5038049;28;20227;-94
2024/03/04 00:32:29;;;;;;;10.40;8.68;;;;;;;;;;5038270;28;20183;-95
2024/03/04 00:34:57;;;;;;;11.45;10.13;;;;;;;;;;5038049;28;20268;-94
2024/03/04 00:37:25;;;;;;;10.10;8.32;;;;;;;;;;5037755;28;20213;-94
2024/03/04 00:39:53;;;;;;;10.50;9.40;;;;;;;;;;5037920;28;20227;-94
2024/03/04 00:42:25;;;;;;;9.82;8.82;;;;;;;;;;5038071;28;20194;-93
2024/03/04 00:44:53;;;;;;;10.95;9.82;;;;;;;;;;5038016;28;20267;-93
2024/03/04 00:47:20;;;;;;;10.98;9.48;;;;;;;;;;5037731;28;20187;-94
2024/03/04 00:49:48;;;;;;;10.02;9.02;;;;;;;;;;5037641;28;20227;-94
2024/03/04 00:52:17;;;;;;;9.65;8.65;;;;;;;;;;5037081;28;20199;-94
2024/03/04 00:54:45;;;;;;;12.27;9.50;;;;;;;;;;5038192;28;20203;-93
2024/03/04 00:57:13;;;;;;;9.70;8.65;;;;;;;;;;5038298;28;20227;-94
2024/03/04 00:59:42;;;;;;;11.68;9.50;;;;;;;;;;5037434;28;20211;-94
2024/03/04 01:02:11;;;;;;;14.95;11.38;;;;;;;;;;5037747;28;20246;-94
2024/03/04 01:04:39;;;;;;;11.82;10.07;;;;;;;;;;5038125;28;20201;-94
2024/03/04 01:07:07;;;;;;;12.77;10.02;;;;;;;;;;5038139;28;20210;-95
2024/03/04 01:09:34;;;;;;;12.15;9.52;;;;;;;;;;5038035;28;20223;-94
2024/03/04 01:12:02;;;;;;;11.60;9.35;;;;;;;;;;5037708;28;20198;-92
2024/03/04 01:14:30;;;;;;;12.30;10.18;;;;;;;;;;5037986;28;20191;-93
2024/03/04 01:16:59;;;;;;;13.77;11.10;;;;;;;;;;5037842;28;20199;-93
2024/03/04 01:19:28;;;;;;;14.15;11.45;;;;;;;;;;5037598;28;20226;-93
2024/03/04 01:21:55;;;;;;;13.60;11.18;;;;;;;;;;5037651;28;20225;-94
2024/03/04 01:24:23;;;;;;;14.50;10.95;;;;;;;;;;5037765;28;20183;-93
2024/03/04 01:26:52;;;;;;;11.40;10.25;;;;;;;;;;5037791;28;20187;-94
2024/03/04 01:29:20;;;;;;;10.60;9.50;;;;;;;;;;5037728;28;20234;-94
2024/03/04 01:31:47;;;;;;;12.45;11.15;;;;;;;;;;5037521;28;20187;-93
2024/03/04 01:34:16;;;;;;;13.02;10.65;;;;;;;;;;5037368;28;20218;-95
2024/03/04 01:36:44;;;;;;;14.68;11.63;;;;;;;;;;5037449;28;20203;-93
2024/03/04 01:39:11;;;;;;;13.80;12.07;;;;;;;;;;5037718;28;20206;-94
2024/03/04 01:41:39;;;;;;;14.57;11.80;;;;;;;;;;5037389;28;20190;-93
2024/03/04 01:44:07;;;;;;;12.45;11.00;;;;;;;;;;5037450;28;20203;-94
2024/03/04 01:46:35;;;;;;;16.17;13.00;;;;;;;;;;5037513;28;20217;-94
2024/03/04 01:49:03;;;;;;;14.70;11.90;;;;;;;;;;5037267;28;20231;-95
2024/03/04 01:51:33;;;;;;;18.75;13.77;;;;;;;;;;5037422;28;20203;-93
2024/03/04 01:54:01;;;;;;;14.38;11.55;;;;;;;;;;5037526;28;20263;-93
2024/03/04 01:56:29;;;;;;;14.55;11.48;;;;;;;;;;5037269;28;20206;-94
2024/03/04 01:58:56;;;;;;;15.20;13.30;;;;;;;;;;5036927;28;20225;-95
2024/03/04 02:01:25;;;;;;;16.30;12.40;;;;;;;;;;5037287;28;20207;-93
2024/03/04 02:03:53;;;;;;;17.67;12.85;;;;;;;;;;5037413;28;20197;-93
2024/03/04 02:06:21;;;;;;;14.13;11.45;;;;;;;;;;5037076;28;20194;-93
2024/03/04 02:08:50;;;;;;;13.10;10.98;;;;;;;;;;5037352;28;20211;-94
2024/03/04 02:11:19;;;;;;;14.98;12.50;;;;;;;;;;5040376;28;20187;-93
2024/03/04 02:13:46;;;;;;;15.63;12.20;;;;;;;;;;5041138;28;20206;-93
2024/03/04 02:16:14;;;;;;;16.40;12.60;;;;;;;;;;5041277;28;20199;-93
2024/03/04 02:18:42;;;;;;;14.68;11.90;;;;;;;;;;5041162;28;20211;-94
2024/03/04 02:21:10;;;;;;;17.33;12.55;;;;;;;;;;5041214;28;20187;-93
2024/03/04 02:23:39;;;;;;;17.35;13.52;;;;;;;;;;5041046;28;20187;-92
2024/03/04 02:26:07;;;;;;;16.42;13.70;;;;;;;;;;5041206;28;20191;-93
2024/03/04 02:28:34;;;;;;;14.85;11.95;;;;;;;;;;5041136;28;20220;-93
2024/03/04 02:31:03;;;;;;;13.82;10.73;;;;;;;;;;5041265;28;20182;-93
2024/03/04 02:33:31;;;;;;;14.23;12.27;;;;;;;;;;5040910;28;20179;-93
2024/03/04 02:35:59;;;;;;;15.77;12.80;;;;;;;;;;5040922;28;20202;-92
2024/03/04 02:38:27;;;;;;;14.07;11.95;;;;;;;;;;5040705;28;20268;-93
2024/03/04 02:40:59;;;;;;;15.80;11.70;;;;;;;;;;5040756;28;20183;-94
2024/03/04 02:43:27;;;;;;;13.15;11.15;;;;;;;;;;5040439;28;20210;-93
2024/03/04 02:45:55;;;;;;;12.55;10.10;;;;;;;;;;5040527;28;20214;-93
2024/03/04 02:48:22;;;;;;;10.18;9.07;;;;;;;;;;5040303;28;20205;-93
2024/03/04 02:50:50;;;;;;;13.70;9.80;;;;;;;;;;5040478;28;20199;-94
2024/03/04 02:53:18;;;;;;;13.88;9.50;;;;;;;;;;5040284;28;20266;-94
2024/03/04 02:55:46;;;;;;;13.77;10.73;;;;;;;;;;5040447;28;20210;-93
2024/03/04 02:58:15;;;;;;;15.32;11.80;;;;;;;;;;5040243;28;20203;-94
2024/03/04 03:00:42;;;;;;;13.55;11.57;;;;;;;;;;5127043;22;20258;-92
2024/03/04 03:03:10;;;;;;;13.23;11.88;;;;;;;;;;5039362;28;20209;-93
2024/03/04 03:05:37;;;;;;;10.52;9.43;;;;;;;;;;5039245;28;20226;-93
2024/03/04 03:08:06;;;;;;;12.82;10.93;;;;;;;;;;5039445;28;20187;-92
2024/03/04 03:10:35;;;;;;;13.20;11.10;;;;;;;;;;5039313;28;20245;-93
2024/03/04 03:13:03;;;;;;;13.80;11.27;;;;;;;;;;5038793;28;20213;-92
2024/03/04 03:15:32;;;;;;;15.60;11.05;;;;;;;;;;5038709;28;20266;-93
2024/03/04 03:18:06;;;;;;;9.45;8.10;;;;;;;;;;5038344;28;20207;-92
2024/03/04 03:20:33;;;;;;;11.40;9.32;;;;;;;;;;5037869;28;20207;-93
2024/03/04 03:23:01;;;;;;;11.88;10.52;;;;;;;;;;5037043;28;20199;-94
2024/03/04 03:25:28;;;;;;;12.80;10.02;;;;;;;;;;5038240;28;20181;-93
2024/03/04 03:27:56;;;;;;;10.88;9.38;;;;;;;;;;5039000;28;20191;-93
2024/03/04 03:30:23;;;;;;;12.07;9.30;;;;;;;;;;5039692;28;20219;-93
2024/03/04 03:32:52;;;;;;;12.20;9.93;;;;;;;;;;5037679;28;20196;-94
2024/03/04 03:35:20;;;;;;;12.20;10.05;;;;;;;;;;5038040;28;20282;-94
2024/03/04 03:37:49;;;;;;;11.35;9.13;;;;;;;;;;5037841;28;20236;-94
2024/03/04 03:40:16;;;;;;;7.22;6.35;;;;;;;;;;5037344;28;20223;-94
2024/03/04 03:42:44;;;;;;;8.40;7.60;;;;;;;;;;5037278;28;20218;-95
2024/03/04 03:45:11;;;;;;;10.43;9.25;;;;;;;;;;5037961;28;20183;-94
2024/03/04 03:47:39;;;;;;;10.70;9.60;;;;;;;;;;5038189;28;20191;-94
2024/03/04 03:50:09;;;;;;;10.82;8.95;;;;;;;;;;5039471;28;20222;-94
2024/03/04 03:52:37;;;;;;;12.80;10.30;;;;;;;;;;5039434;28;20187;-94
2024/03/04 03:55:05;;;;;;;12.88;10.45;;;;;;;;;;5038578;28;20218;-94
2024/03/04 03:57:33;;;;;;;8.57;7.70;;;;;;;;;;5038362;28;20187;-93
2024/03/04 04:00:00;;;;;;;10.68;9.48;;;;;;;;;;5038494;28;20254;-92
2024/03/04 04:02:28;;;;;;;12.23;9.63;;;;;;;;;;5037036;28;20203;-94
2024/03/04 04:04:56;;;;;;;11.63;9.48;;;;;;;;;;5037288;28;20199;-93
2024/03/04 04:07:25;;;;;;;11.38;9.25;;;;;;;;;;5037319;28;20214;-94
2024/03/04 04:09:53;;;;;;;9.43;8.05;;;;;;;;;;5037517;28;20242;-94
2024/03/04 04:12:20;;;;;;;10.68;8.75;;;;;;;;;;5036783;28;20199;-94
2024/03/04 04:14:49;;;;;;;11.25;9.45;;;;;;;;;;5037376;28;20191;-93
2024/03/04 04:17:17;;;;;;;13.63;10.48;;;;;;;;;;5037505;28;20191;-93
2024/03/04 04:19:44;;;;;;;11.40;9.55;;;;;;;;;;5036937;28;20218;-93
2024/03/04 04:22:12;;;;;;;15.18;12.30;;;;;;;;;;5037236;28;20207;-94
2024/03/04 04:24:41;;;;;;;15.75;12.55;;;;;;;;;;5036828;28;20203;-94
2024/03/04 04:27:09;;;;;;;14.88;12.63;;;;;;;;;;5037722;28;20188;-93
2024/03/04 04:29:36;;;;;;;14.27;12.80;;;;;;;;;;5036715;28;20207;-93
2024/03/04 04:32:04;;;;;;;16.80;14.18;;;;;;;;;;5037487;28;20195;-92
2024/03/04 04:34:32;;;;;;;22.92;15.98;;;;;;;;;;5038503;28;20210;-91
2024/03/04 04:36:59;;;;;;;21.13;16.38;;;;;;;;;;5037301;28;20210;-93
2024/03/04 04:39:27;;;;;;;24.88;18.38;;;;;;;;;;5038415;28;20206;-92
2024/03/04 04:41:56;;;;;;;23.70;17.95;;;;;;;;;;5038274;28;20196;-93
2024/03/04 04:44:24;;;;;;;24.52;18.23;;;;;;;;;;5036648;28;20203;-92
2024/03/04 04:46:52;;;;;;;27.05;20.35;;;;;;;;;;5035900;28;20218;-93
2024/03/04 04:49:19;;;;;;;23.55;19.80;;;;;;;;;;5036270;28;20211;-92
2024/03/04 04:51:49;;;;;;;30.75;20.85;;;;;;;;;;5035703;28;20219;-92
2024/03/04 04:54:17;;;;;;;29.23;21.17;;;;;;;;;;5035261;28;20187;-94
2024/03/04 04:56:48;;;;;;;32.35;22.08;;;;;;;;;;5037342;28;20238;-94
2024/03/04 04:59:17;;;;;;;37.50;22.25;;;;;;;;;;5038127;28;20214;-92
2024/03/04 05:01:45;;;;;;;32.92;22.95;;;;;;;;;;5036983;28;20205;-93
2024/03/04 05:04:12;;;;;;;39.25;26.05;;;;;;;;;;5037997;28;20190;-93
2024/03/04 05:06:40;;;;;;;33.22;22.42;;;;;;;;;;5038227;28;20183;-91
2024/03/04 05:09:09;;;;;;;35.55;25.95;;;;;;;;;;5038267;28;20195;-91
2024/03/04 05:11:36;;;;;;;30.95;21.58;;;;;;;;;;5037877;28;20203;-94
2024/03/04 05:14:04;;;;;;;28.92;21.42;;;;;;;;;;5037927;28;20199;-92
2024/03/04 05:16:33;;;;;;;27.70;21.00;;;;;;;;;;5038076;28;20234;-94
2024/03/04 05:19:01;;;;;;;32.53;20.52;;;;;;;;;;5038079;28;20191;-92
2024/03/04 05:21:29;;;;;;;34.97;23.20;;;;;;;;;;5037947;28;20182;-94
2024/03/04 05:23:56;;;;;;;31.58;21.35;;;;;;;;;;5037825;28;20188;-93
2024/03/04 05:26:24;;;;;;;34.90;22.15;;;;;;;;;;5037627;28;20199;-93
2024/03/04 05:28:52;;;;;;;37.55;22.90;;;;;;;;;;5037489;28;20258;-93
2024/03/04 05:31:19;;;;;;;32.15;22.73;;;;;;;;;;5037764;28;20215;-93
2024/03/04 05:33:48;;;;;;;21.45;16.27;;;;;;;;;;5036630;28;20198;-94
2024/03/04 05:36:16;;;;;;;19.70;14.60;;;;;;;;;;5036274;28;20198;-94
2024/03/04 05:38:44;;;;;;;14.55;11.82;;;;;;;;;;5036015;28;20213;-93
2024/03/04 05:41:12;;;;;;;11.93;10.05;;;;;;;;;;5036153;28;20254;-94
2024/03/04 05:43:40;;;;;;;14.38;10.63;;;;;;;;;;5036394;28;20210;-94
2024/03/04 05:46:07;;;;;;;13.75;11.55;;;;;;;;;;5042070;28;20217;-92
2024/03/04 05:48:35;;;;;;;12.13;10.27;;;;;;;;;;5044352;28;20178;-94
2024/03/04 05:51:05;;;;;;;12.85;11.43;;;;;;;;;;5043699;28;20230;-93
2024/03/04 05:53:33;;;;;;;13.98;10.43;;;;;;;;;;5043842;28;20209;-93
2024/03/04 05:56:03;;;;;;;11.68;9.23;;;;;;;;;;5043318;28;20178;-94
2024/03/04 05:58:31;;;;;;;12.82;10.00;;;;;;;;;;5044323;28;20186;-94
2024/03/04 06:00:58;;;;;;;12.00;9.95;;;;;;;;;;5043669;28;20219;-94
2024/03/04 06:03:26;;;;;;;15.57;12.07;;;;;;;;;;5043307;28;20191;-93
2024/03/04 06:05:53;;;;;;;11.32;10.13;;;;;;;;;;5043477;28;20245;-94
2024/03/04 06:08:22;;;;;;;12.40;10.27;;;;;;;;;;5043942;28;20214;-94
2024/03/04 06:10:50;;;;;;;14.02;11.07;;;;;;;;;;5044034;28;20234;-91
2024/03/04 06:13:18;;;;;;;16.35;13.20;;;;;;;;;;5043898;28;20206;-92
2024/03/04 06:15:45;;;;;;;20.27;15.15;;;;;;;;;;5043727;28;20254;-93
2024/03/04 06:18:13;;;;;;;17.42;14.32;;;;;;;;;;5043915;28;20198;-93
2024/03/04 06:20:41;;;;;;;15.77;12.50;;;;;;;;;;5043629;28;20222;-94
2024/03/04 06:23:09;;;;;;;14.70;12.30;;;;;;;;;;5043657;28;20187;-94
2024/03/04 06:25:38;;;;;;;11.85;10.65;;;;;;;;;;5043806;28;20254;-94
2024/03/04 06:28:06;;;;;;;9.98;8.55;;;;;;;;;;5043924;28;20187;-93
2024/03/04 06:30:34;;;;;;;8.73;7.50;;;;;;;;;;5043599;28;20229;-93
2024/03/04 06:33:01;;;;;;;8.77;7.82;;;;;;;;;;5043539;28;20198;-94
2024/03/04 06:35:29;;;;;;;8.60;7.75;;;;;;;;;;5043216;28;20203;-93
2024/03/04 06:37:56;;;;;;;10.18;7.93;;;;;;;;;;5043537;28;20202;-93
2024/03/04 06:40:24;;;;;;;12.13;10.38;;;;;;;;;;5043509;28;20205;-94
2024/03/04 06:42:53;;;;;;;10.68;9.00;;;;;;;;;;5043445;28;20187;-95
2024/03/04 06:45:21;;;;;;;13.15;9.13;;;;;;;;;;5043519;28;20191;-95
2024/03/04 06:47:48;;;;;;;8.73;7.45;;;;;;;;;;5042991;28;20206;-94
2024/03/04 06:50:16;;;;;;;9.77;7.90;;;;;;;;;;5043193;28;20219;-93
2024/03/04 06:52:44;;;;;;;9.25;8.25;;;;;;;;;;5042920;28;20230;-93
2024/03/04 06:55:11;;;;;;;9.85;7.80;;;;;;;;;;5043252;28;20210;-94
2024/03/04 06:57:39;;;;;;;9.98;8.98;;;;;;;;;;5039543;28;20187;-93
2024/03/04 07:00:13;;;;;;;10.73;8.60;;;;;;;;;;5040236;28;20246;-94
2024/03/04 07:02:41;;;;;;;11.30;9.82;;;;;;;;;;5039734;28;20186;-93
2024/03/04 07:05:09;;;;;;;20.20;15.30;;;;;;;;;;5040100;28;20195;-93
2024/03/04 07:07:37;;;;;;;28.77;21.42;;;;;;;;;;5040226;28;20183;-94
2024/03/04 07:10:07;;;;;;;31.60;20.73;;;;;;;;;;5040043;28;20203;-94
2024/03/04 07:12:36;;;;;;;24.05;18.60;;;;;;;;;;5039390;28;20231;-94
2024/03/04 07:15:05;;;;;;;42.25;27.55;;;;;;;;;;5039970;28;20183;-95
2024/03/04 07:17:34;;;;;;;33.17;21.50;;;;;;;;;;5040125;28;20187;-93
2024/03/04 07:20:02;;;;;;;27.85;19.83;;;;;;;;;;5039707;28;20270;-93
2024/03/04 07:22:30;;;;;;;26.25;19.88;;;;;;;;;;5039710;28;20179;-94
2024/03/04 07:24:57;;;;;;;26.58;19.27;;;;;;;;;;5039971;28;20194;-93
2024/03/04 07:27:25;;;;;;;25.38;18.85;;;;;;;;;;5040017;28;20218;-92
2024/03/04 07:29:53;;;;;;;29.90;20.90;;;;;;;;;;5039850;28;20247;-94
2024/03/04 07:32:21;;;;;;;34.33;24.02;;;;;;;;;;5038939;28;20206;-94
2024/03/04 07:34:50;;;;;;;32.63;25.10;;;;;;;;;;5039305;28;20271;-93
2024/03/04 07:37:18;;;;;;;37.28;26.48;;;;;;;;;;5039392;28;20199;-94
2024/03/04 07:39:46;;;;;;;38.97;28.25;;;;;;;;;;5038487;28;20230;-94
2024/03/04 07:42:13;;;;;;;30.00;21.40;;;;;;;;;;5038820;28;20187;-93
2024/03/04 07:44:41;;;;;;;28.38;21.25;;;;;;;;;;5039211;28;20191;-94
2024/03/04 07:47:09;;;;;;;35.75;24.75;;;;;;;;;;5039182;28;20203;-95
2024/03/04 07:49:36;;;;;;;35.58;24.45;;;;;;;;;;5039361;28;20207;-93
2024/03/04 07:52:06;;;;;;;35.47;25.45;;;;;;;;;;5038394;28;20222;-92
2024/03/04 07:54:34;;;;;;;36.20;27.42;;;;;;;;;;5039634;28;20198;-93
2024/03/04 07:57:03;;;;;;;38.10;27.42;;;;;;;;;;5039273;28;20183;-93
2024/03/04 07:59:33;;;;;;;38.50;27.23;;;;;;;;;;5039207;28;20252;-93
2024/03/04 08:02:03;;;;;;;35.97;25.63;;;;;;;;;;5039202;28;20187;-93
2024/03/04 08:04:32;;;;;;;34.78;24.63;;;;;;;;;;5039461;28;20190;-93
2024/03/04 08:06:59;;;;;;;28.60;21.58;;;;;;;;;;5039403;28;20213;-94
2024/03/04 08:09:28;;;;;;;31.00;22.23;;;;;;;;;;5038831;28;20195;-93
2024/03/04 08:11:56;;;;;;;29.83;21.67;;;;;;;;;;5038862;28;20199;-94
2024/03/04 08:14:23;;;;;;;27.75;21.60;;;;;;;;;;5038921;28;20190;-93
2024/03/04 08:16:51;;;;;;;35.47;26.20;;;;;;;;;;5038592;28;20275;-94
2024/03/04 08:19:19;;;;;;;34.85;23.00;;;;;;;;;;5038556;28;20199;-93
2024/03/04 08:21:47;;;;;;;31.67;23.42;;;;;;;;;;5038086;28;20191;-93
2024/03/04 08:24:14;;;;;;;32.13;24.10;;;;;;;;;;5038240;28;20183;-95
2024/03/04 08:26:43;;;;;;;35.38;25.27;;;;;;;;;;5038526;28;20230;-94
2024/03/04 08:29:11;;;;;;;36.80;26.15;;;;;;;;;;5038488;28;20230;-93
2024/03/04 08:31:39;;;;;;;38.33;27.27;;;;;;;;;;5038246;28;20195;-93
2024/03/04 08:34:06;;;;;;;35.90;24.88;;;;;;;;;;5037886;28;20226;-93
2024/03/04 08:36:34;;;;;;;34.80;23.77;;;;;;;;;;5036870;28;20217;-93
2024/03/04 08:39:03;;;;;;;36.50;25.75;;;;;;;;;;5037668;28;20214;-93
2024/03/04 08:41:30;;;;;;;37.47;27.23;;;;;;;;;;5037756;28;20210;-93
2024/03/04 08:43:59;;;;;;;36.47;23.25;;;;;;;;;;5038235;28;20207;-93
2024/03/04 08:46:27;;;;;;;36.35;25.67;;;;;;;;;;5038087;28;20187;-93
2024/03/04 08:48:54;;;;;;;45.13;28.80;;;;;;;;;;5037527;28;20190;-93
2024/03/04 08:51:24;;;;;;;39.17;26.83;;;;;;;;;;5037725;28;20261;-94
2024/03/04 08:53:51;;;;;;;37.35;25.52;;;;;;;;;;5037562;28;20214;-94
2024/03/04 08:56:19;;;;;;;34.15;24.20;;;;;;;;;;5037129;28;20195;-94
2024/03/04 08:58:46;;;;;;;28.23;20.77;;;;;;;;;;5038039;28;20195;-96
2024/03/04 09:01:17;;;;;;;40.05;27.23;;;;;;;;;;5061255;23;20218;-92
2024/03/04 09:03:45;;;;;;;33.78;24.27;;;;;;;;;;5037826;28;20198;-94
2024/03/04 09:06:16;;;;;;;40.15;27.23;;;;;;;;;;5038212;28;20198;-93
2024/03/04 09:08:44;;;;;;;34.60;25.27;;;;;;;;;;5038352;28;20183;-94
2024/03/04 09:11:12;;;;;;;38.67;25.92;;;;;;;;;;5038247;28;20222;-92
2024/03/04 09:13:40;;;;;;;39.03;25.25;;;;;;;;;;5038059;28;20214;-91
2024/03/04 09:16:08;;;;;;;38.08;25.67;;;;;;;;;;5038256;28;20190;-93
2024/03/04 09:18:41;;;;;;;35.20;25.08;;;;;;;;;;5038220;28;20190;-93
2024/03/04 09:21:09;;;;;;;39.60;26.13;;;;;;;;;;5037321;28;20215;-92
2024/03/04 09:23:39;;;;;;;38.47;26.17;;;;;;;;;;5037954;28;20179;-93
2024/03/04 09:26:10;;;;;;;39.95;27.85;;;;;;;;;;5038118;28;20202;-93
2024/03/04 09:28:37;;;;;;;40.50;28.70;;;;;;;;;;5038048;28;20259;-93
2024/03/04 09:31:06;;;;;;;38.00;27.08;;;;;;;;;;5037987;28;20207;-92
2024/03/04 09:33:33;;;;;;;37.35;25.40;;;;;;;;;;5037844;28;20231;-92
2024/03/04 09:36:02;;;;;;;42.00;30.08;;;;;;;;;;5037954;28;20191;-92
2024/03/04 09:38:30;;;;;;;36.80;26.52;;;;;;;;;;5038068;28;20183;-93
2024/03/04 09:40:59;;;;;;;33.50;24.15;;;;;;;;;;5037853;28;20198;-92
2024/03/04 09:43:29;;;;;;;37.15;24.00;;;;;;;;;;5037713;28;20197;-93
2024/03/04 09:45:57;;;;;;;30.05;22.85;;;;;;;;;;5037797;28;20242;-94
2024/03/04 09:48:26;;;;;;;35.13;24.02;;;;;;;;;;5037901;28;20211;-92
2024/03/04 09:50:54;;;;;;;29.85;20.77;;;;;;;;;;5037764;28;20207;-93
2024/03/04 09:53:25;;;;;;;30.05;21.88;;;;;;;;;;5036551;28;20246;-93
2024/03/04 09:55:52;;;;;;;31.45;21.30;;;;;;;;;;5037054;28;20194;-94
2024/03/04 09:58:20;;;;;;;31.15;21.05;;;;;;;;;;5036556;28;20191;-93
2024/03/04 10:00:48;;;;;;;30.95;22.45;;;;;;;;;;5037519;28;20211;-92
2024/03/04 10:03:15;;;;;;;31.63;21.05;;;;;;;;;;5037498;28;20250;-93
2024/03/04 10:05:44;;;;;;;29.50;21.27;;;;;;;;;;5037498;28;20190;-93
2024/03/04 10:08:11;;;;;;;30.88;20.70;;;;;;;;;;5037441;28;20187;-92
2024/03/04 10:10:40;;;;;;;34.85;23.63;;;;;;;;;;5036810;28;20231;-92
2024/03/04 10:13:10;;;;;;;28.83;22.27;;;;;;;;;;5036615;28;20226;-93
2024/03/04 10:15:39;;;;;;;24.58;18.70;;;;;;;;;;5037021;28;20179;-92
2024/03/04 10:18:16;;;;;;;26.90;19.83;;;;;;;;;;5037295;28;20194;-93
2024/03/04 10:20:44;;;;;;;26.65;19.55;;;;;;;;;;5037019;28;20294;-92
2024/03/04 10:23:13;;;;;;;29.25;21.13;;;;;;;;;;5036159;28;20203;-92
2024/03/04 10:25:42;;;;;;;27.85;21.67;;;;;;;;;;5036985;28;20187;-94
2024/03/04 10:28:11;;;;;;;30.70;23.00;;;;;;;;;;5037233;28;20195;-94
2024/03/04 10:30:39;;;;;;;25.95;18.85;;;;;;;;;;5036863;28;20239;-92
2024/03/04 10:33:07;;;;;;;25.45;20.58;;;;;;;;;;5039808;28;20249;-92
2024/03/04 10:35:35;;;;;;;24.58;19.38;;;;;;;;;;5040337;28;20183;-92
2024/03/04 10:38:03;;;;;;;25.10;18.02;;;;;;;;;;5039599;28;20199;-93
2024/03/04 10:40:33;;;;;;;23.42;18.35;;;;;;;;;;5039221;28;20222;-92
2024/03/04 10:43:03;;;;;;;24.23;19.10;;;;;;;;;;5040078;28;20186;-93
2024/03/04 10:45:32;;;;;;;21.98;17.63;;;;;;;;;;5040101;28;20238;-93
2024/03/04 10:48:01;;;;;;;22.80;17.52;;;;;;;;;;5039616;28;20267;-93
2024/03/04 10:50:30;;;;;;;25.67;19.67;;;;;;;;;;5040936;28;20230;-91
2024/03/04 10:52:57;;;;;;;23.55;18.70;;;;;;;;;;5040668;28;20183;-93
2024/03/04 10:55:25;;;;;;;24.40;18.80;;;;;;;;;;5040836;28;20214;-93
2024/03/04 10:57:57;;;;;;;23.30;18.55;;;;;;;;;;5040493;28;20188;-92
2024/03/04 11:00:27;;;;;;;26.08;18.70;;;;;;;;;;5039350;28;20231;-93
2024/03/04 11:03:15;;;;;;;27.92;19.63;;;;;;;;;;5039689;28;20191;-94
2024/03/04 11:05:46;;;;;;;24.15;18.42;;;;;;;;;;5039819;28;20207;-92
2024/03/04 11:08:18;;;;;;;22.85;17.27;;;;;;;;;;5040190;28;20187;-93
2024/03/04 11:10:50;;;;;;;21.77;16.30;;;;;;;;;;5040240;28;20234;-93
2024/03/04 11:13:26;;;;;;;17.23;13.90;;;;;;;;;;5040071;28;20205;-92
2024/03/04 11:16:01;;;;;;;19.88;15.57;;;;;;;;;;5040352;28;20198;-94
2024/03/04 11:18:40;;;;;;;23.08;16.38;;;;;;;;;;5040016;28;20190;-92
2024/03/04 11:21:08;;;;;;;25.17;16.92;;;;;;;;;;5039909;28;20238;-93
2024/03/04 11:23:36;;;;;;;22.77;16.05;;;;;;;;;;5039950;28;20207;-93
2024/03/04 11:26:04;;;;;;;24.65;17.65;;;;;;;;;;5040320;28;20195;-93
2024/03/04 11:28:33;;;;;;;22.17;16.63;;;;;;;;;;5040062;28;20199;-93
2024/03/04 11:31:02;;;;;;;23.27;16.13;;;;;;;;;;5039944;28;20342;-93
2024/03/04 11:33:45;;;;;;;24.02;15.77;;;;;;;;;;5039704;28;20179;-94
2024/03/04 11:36:15;;;;;;;21.33;16.77;;;;;;;;;;5039900;28;20210;-93
2024/03/04 11:38:44;;;;;;;20.95;15.25;;;;;;;;;;5039931;28;20194;-93
2024/03/04 11:41:13;;;;;;;22.73;16.08;;;;;;;;;;5039738;28;20211;-92
2024/03/04 11:43:45;;;;;;;23.90;16.15;;;;;;;;;;5038852;28;20187;-93
2024/03/04 11:46:20;;;;;;;16.52;13.05;;;;;;;;;;5039875;28;20190;-93
2024/03/04 11:48:48;;;;;;;17.08;13.32;;;;;;;;;;5039795;28;20186;-93
2024/03/04 11:51:27;;;;;;;15.65;13.85;;;;;;;;;;5039565;28;20211;-93
2024/03/04 11:53:57;;;;;;;16.73;13.80;;;;;;;;;;5039483;28;20186;-94
2024/03/04 11:56:24;;;;;;;19.60;14.50;;;;;;;;;;5039408;28;20186;-94
2024/03/04 11:58:52;;;;;;;21.70;16.48;;;;;;;;;;5039537;28;20186;-93
2024/03/04 12:01:21;;;;;;;19.02;14.75;;;;;;;;;;5039383;28;20245;-91
2024/03/04 12:03:53;;;;;;;16.55;13.77;;;;;;;;;;5039329;28;20190;-93
2024/03/04 12:06:20;;;;;;;20.25;14.05;;;;;;;;;;5039494;28;20190;-94
2024/03/04 12:08:48;;;;;;;19.58;14.75;;;;;;;;;;5039422;28;20206;-92
2024/03/04 12:11:18;;;;;;;17.60;14.18;;;;;;;;;;5039324;28;20210;-91
2024/03/04 12:13:46;;;;;;;22.15;15.63;;;;;;;;;;5039219;28;20217;-93
2024/03/04 12:16:15;;;;;;;18.40;14.82;;;;;;;;;;5039180;28;20221;-93
2024/03/04 12:18:44;;;;;;;19.40;16.27;;;;;;;;;;5039206;28;20344;-92
2024/03/04 12:21:12;;;;;;;19.00;14.82;;;;;;;;;;5039052;28;20219;-92
2024/03/04 12:23:40;;;;;;;22.52;15.60;;;;;;;;;;5038975;28;20243;-92
2024/03/04 12:26:12;;;;;;;19.00;14.35;;;;;;;;;;5039139;28;20195;-93
2024/03/04 12:28:40;;;;;;;21.27;14.18;;;;;;;;;;5039047;28;20206;-92
2024/03/04 12:31:11;;;;;;;17.60;14.77;;;;;;;;;;5038820;28;20207;-92
2024/03/04 12:33:38;;;;;;;16.77;14.10;;;;;;;;;;5038821;28;20266;-92
2024/03/04 12:36:09;;;;;;;23.55;14.32;;;;;;;;;;5038599;28;20223;-92
2024/03/04 12:38:37;;;;;;;17.38;13.02;;;;;;;;;;5038453;28;20199;-93
2024/03/04 12:41:06;;;;;;;19.27;14.30;;;;;;;;;;5038340;28;20212;-93
2024/03/04 12:43:35;;;;;;;18.55;14.60;;;;;;;;;;5038430;28;20209;-92
2024/03/04 12:46:03;;;;;;;17.20;13.80;;;;;;;;;;5038369;28;20214;-92
2024/03/04 12:48:31;;;;;;;19.05;15.07;;;;;;;;;;5038487;28;20201;-91
2024/03/04 12:50:59;;;;;;;18.00;13.48;;;;;;;;;;5038153;28;20203;-92
2024/03/04 12:53:28;;;;;;;16.13;13.93;;;;;;;;;;5038217;28;20190;-94
2024/03/04 12:55:55;;;;;;;17.25;13.43;;;;;;;;;;5037261;28;20434;-93
2024/03/04 12:58:23;;;;;;;19.90;14.68;;;;;;;;;;5038338;28;20214;-95
2024/03/04 13:00:51;;;;;;;21.60;16.05;;;;;;;;;;5037830;28;20225;-92
2024/03/04 13:03:18;;;;;;;19.10;14.55;;;;;;;;;;5037871;28;20200;-94
2024/03/04 13:05:46;;;;;;;19.13;14.63;;;;;;;;;;5038201;28;20206;-94
2024/03/04 13:08:14;;;;;;;19.30;14.65;;;;;;;;;;5038146;28;20187;-94
2024/03/04 13:10:43;;;;;;;19.27;14.90;;;;;;;;;;5038230;28;20207;-93
2024/03/04 13:13:11;;;;;;;22.55;16.05;;;;;;;;;;5038020;28;20246;-94
2024/03/04 13:15:40;;;;;;;18.17;14.65;;;;;;;;;;5037945;28;20215;-94
2024/03/04 13:18:09;;;;;;;18.48;14.18;;;;;;;;;;5038225;28;20190;-95
2024/03/04 13:20:37;;;;;;;18.35;14.30;;;;;;;;;;5038147;28;20213;-94
2024/03/04 13:23:05;;;;;;;19.15;14.82;;;;;;;;;;5037749;28;20186;-95
2024/03/04 13:25:33;;;;;;;19.25;13.93;;;;;;;;;;5037681;28;20221;-95
2024/03/04 13:28:02;;;;;;;18.77;15.05;;;;;;;;;;5037589;28;20230;-94
2024/03/04 13:30:30;;;;;;;21.02;16.83;;;;;;;;;;5037564;28;20233;-94
2024/03/04 13:32:57;;;;;;;17.67;15.35;;;;;;;;;;5036895;28;20187;-92
2024/03/04 13:35:25;;;;;;;21.10;16.10;;;;;;;;;;5036637;28;20218;-95
2024/03/04 13:37:53;;;;;;;19.55;14.93;;;;;;;;;;5037535;28;20262;-94
2024/03/04 13:40:20;;;;;;;19.38;14.95;;;;;;;;;;5037628;28;20234;-95
2024/03/04 13:42:48;;;;;;;20.60;14.30;;;;;;;;;;5037679;28;20190;-94
2024/03/04 13:45:17;;;;;;;23.70;16.15;;;;;;;;;;5037790;28;20187;-94
2024/03/04 13:47:45;;;;;;;18.10;14.18;;;;;;;;;;5037909;28;20194;-94
2024/03/04 13:50:13;;;;;;;20.98;15.02;;;;;;;;;;5037739;28;20207;-95
2024/03/04 13:52:41;;;;;;;21.27;14.65;;;;;;;;;;5037660;28;20190;-94
2024/03/04 13:55:09;;;;;;;17.88;14.13;;;;;;;;;;5037742;28;20187;-94
2024/03/04 13:57:37;;;;;;;18.48;14.35;;;;;;;;;;5036993;28;20190;-94
2024/03/04 14:00:06;;;;;;;18.30;13.85;;;;;;;;;;5037551;28;20203;-93
2024/03/04 14:02:40;;;;;;;18.40;14.80;;;;;;;;;;5037709;28;20218;-94
2024/03/04 14:05:12;;;;;;;15.07;12.30;;;;;;;;;;5037740;28;20209;-95
2024/03/04 14:07:40;;;;;;;16.17;13.90;;;;;;;;;;5041097;28;20214;-94
2024/03/04 14:10:11;;;;;;;14.57;13.10;;;;;;;;;;5041713;28;20203;-94
2024/03/04 14:12:39;;;;;;;20.40;14.93;;;;;;;;;;5041104;28;20191;-94
2024/03/04 14:15:08;;;;;;;17.48;14.10;;;;;;;;;;5041201;28;20195;-94
2024/03/04 14:17:36;;;;;;;18.83;13.20;;;;;;;;;;5041169;28;20246;-94
2024/03/04 14:20:07;;;;;;;16.98;12.75;;;;;;;;;;5041274;28;20207;-94
2024/03/04 14:22:35;;;;;;;17.95;13.23;;;;;;;;;;5041121;28;20217;-94
2024/03/04 14:25:03;;;;;;;20.60;14.68;;;;;;;;;;5041149;28;20198;-95
2024/03/04 14:27:31;;;;;;;18.30;14.82;;;;;;;;;;5041557;28;20203;-93